createdAt,value
2023-02-05T00:01:05.164Z,103849.44
2023-02-05T00:03:35.248Z,103843.44
2023-02-05T00:06:03.029Z,103852.97
2023-02-05T00:08:31.165Z,103848.66
2023-02-05T00:11:07.536Z,103862.53
2023-02-05T00:13:35.629Z,103840.81
2023-02-05T00:16:10.305Z,103845.03
2023-02-05T00:18:38.566Z,103820.81
2023-02-05T00:21:07.059Z,103799.97
2023-02-05T00:23:35.836Z,103806.91
2023-02-05T00:26:06.256Z,103799.88
2023-02-05T00:28:34.419Z,103784.34
2023-02-05T00:31:02.692Z,103780.00
2023-02-05T00:33:30.474Z,103773.94
2023-02-05T00:35:58.255Z,103775.69
2023-02-05T00:38:26.038Z,103763.56
2023-02-05T00:40:53.856Z,103769.63
2023-02-05T00:43:22.971Z,103760.94
2023-02-05T00:45:50.764Z,103747.03
2023-02-05T00:48:18.531Z,103744.41
2023-02-05T00:50:46.269Z,103742.69
2023-02-05T00:53:13.997Z,103718.44
2023-02-05T00:55:41.726Z,103724.50
2023-02-05T00:58:09.629Z,103718.44
2023-02-05T01:00:38.839Z,103706.28
2023-02-05T01:03:06.907Z,103716.56
2023-02-05T01:05:36.095Z,103703.63
2023-02-05T01:08:05.408Z,103714.09
2023-02-05T01:10:33.454Z,103730.53
2023-02-05T01:13:01.289Z,103737.50
2023-02-05T01:15:29.031Z,103737.44
2023-02-05T01:17:59.968Z,103737.41
2023-02-05T01:20:29.004Z,103746.19
2023-02-05T01:22:57.007Z,103727.06
2023-02-05T01:25:25.024Z,103691.53
2023-02-05T01:27:52.767Z,103701.06
2023-02-05T01:30:20.524Z,103684.59
2023-02-05T01:32:48.398Z,103676.78
2023-02-05T01:35:17.636Z,103667.25
2023-02-05T01:37:45.548Z,103653.31
2023-02-05T01:40:15.897Z,103649.88
2023-02-05T01:42:44.020Z,103649.91
2023-02-05T01:45:50.766Z,103635.09
2023-02-05T01:48:23.362Z,103659.41
2023-02-05T01:50:56.754Z,103648.13
2023-02-05T01:53:27.317Z,103666.38
2023-02-05T01:55:58.594Z,103662.88
2023-02-05T01:58:31.115Z,103652.47
2023-02-05T02:00:59.347Z,103641.16
2023-02-05T02:03:29.304Z,103633.44
2023-02-05T02:05:58.525Z,103628.19
2023-02-05T02:08:26.382Z,103637.72
2023-02-05T02:10:56.575Z,103638.56
2023-02-05T02:13:28.168Z,103642.94
2023-02-05T02:15:57.007Z,103638.63
2023-02-05T02:18:27.323Z,103641.22
2023-02-05T02:21:19.231Z,103622.13
2023-02-05T02:24:03.076Z,103613.44
2023-02-05T02:26:48.428Z,103612.59
2023-02-05T02:29:24.425Z,103633.41
2023-02-05T02:31:58.215Z,103637.72
2023-02-05T02:34:32.796Z,103635.13
2023-02-05T02:37:07.668Z,103632.44
2023-02-05T02:39:41.228Z,103633.38
2023-02-05T02:42:14.492Z,103632.56
2023-02-05T02:44:49.583Z,103652.47
2023-02-05T02:47:21.716Z,103678.50
2023-02-05T02:49:53.069Z,103660.31
2023-02-05T02:52:23.449Z,103666.38
2023-02-05T02:54:53.952Z,103669.72
2023-02-05T02:57:26.898Z,103637.72
2023-02-05T03:00:00.560Z,103648.94
2023-02-05T03:02:31.843Z,103622.00
2023-02-05T03:05:04.949Z,103615.16
2023-02-05T03:07:36.009Z,103600.44
2023-02-05T03:10:09.421Z,103609.06
2023-02-05T03:12:37.361Z,103599.50
2023-02-05T03:15:07.698Z,103588.28
2023-02-05T03:17:36.537Z,103584.84
2023-02-05T03:20:11.130Z,103595.25
2023-02-05T03:22:38.918Z,103621.25
2023-02-05T03:25:07.567Z,103642.06
2023-02-05T03:27:36.038Z,103668.97
2023-02-05T03:30:06.465Z,103681.06
2023-02-05T03:32:47.196Z,103690.59
2023-02-05T03:35:24.752Z,103695.81
2023-02-05T03:38:08.158Z,103694.06
2023-02-05T03:40:44.669Z,103670.69
2023-02-05T03:43:17.865Z,103663.78
2023-02-05T03:45:52.501Z,103649.84
2023-02-05T03:48:36.811Z,103629.06
2023-02-05T03:51:22.646Z,103626.47
2023-02-05T03:54:01.342Z,103624.75
2023-02-05T03:56:36.243Z,103621.25
2023-02-05T03:59:05.499Z,103622.06
2023-02-05T04:01:35.122Z,103613.41
2023-02-05T04:04:02.848Z,103612.53
2023-02-05T04:06:30.643Z,103600.34
2023-02-05T04:08:58.429Z,103590.88
2023-02-05T04:11:26.205Z,103580.47
2023-02-05T04:13:53.947Z,103578.75
2023-02-05T04:16:21.749Z,103585.63
2023-02-05T04:18:50.853Z,103572.66
2023-02-05T04:21:18.621Z,103567.50
2023-02-05T04:23:46.393Z,103571.84
2023-02-05T04:26:14.185Z,103597.84
2023-02-05T04:28:41.998Z,103604.78
2023-02-05T04:31:10.268Z,103615.13
2023-02-05T04:33:38.009Z,103585.69
2023-02-05T04:36:08.008Z,103574.44
2023-02-05T04:38:36.439Z,103579.66
2023-02-05T04:41:04.335Z,103577.88
2023-02-05T04:43:32.109Z,103557.94
2023-02-05T04:45:59.889Z,103550.16
2023-02-05T04:48:27.702Z,103528.50
2023-02-05T04:50:55.467Z,103559.72
2023-02-05T04:53:24.602Z,103545.00
2023-02-05T04:55:52.399Z,103551.88
2023-02-05T04:58:21.422Z,103587.38
2023-02-05T05:00:49.206Z,103569.25
2023-02-05T05:03:16.995Z,103570.13
2023-02-05T05:05:45.345Z,103555.34
2023-02-05T05:08:13.104Z,103542.34
2023-02-05T05:10:42.212Z,103532.84
2023-02-05T05:13:09.962Z,103511.19
2023-02-05T05:15:37.885Z,103496.44
2023-02-05T05:18:06.015Z,103491.25
2023-02-05T05:20:33.797Z,103470.44
2023-02-05T05:23:01.889Z,103482.59
2023-02-05T05:25:29.617Z,103480.84
2023-02-05T05:27:58.759Z,103469.56
2023-02-05T05:30:26.535Z,103473.91
2023-02-05T05:32:54.294Z,103480.84
2023-02-05T05:35:22.093Z,103499.88
2023-02-05T05:37:49.825Z,103507.66
2023-02-05T05:40:35.847Z,103487.75
2023-02-05T05:43:22.445Z,103479.09
2023-02-05T05:45:50.558Z,103485.97
2023-02-05T05:48:18.343Z,103486.03
2023-02-05T05:50:46.618Z,103502.38
2023-02-05T05:53:14.407Z,103531.97
2023-02-05T05:55:43.033Z,103545.72
2023-02-05T05:58:12.429Z,103549.28
2023-02-05T06:00:40.846Z,103534.59
2023-02-05T06:03:10.763Z,103519.63
2023-02-05T06:05:39.012Z,103563.91
2023-02-05T06:08:07.026Z,103586.56
2023-02-05T06:10:35.139Z,103587.44
2023-02-05T06:13:02.983Z,103574.41
2023-02-05T06:15:32.360Z,103569.22
2023-02-05T06:18:00.213Z,103568.34
2023-02-05T06:20:28.134Z,103566.63
2023-02-05T06:22:56.022Z,103545.84
2023-02-05T06:25:23.817Z,103551.88
2023-02-05T06:27:51.707Z,103526.75
2023-02-05T06:30:19.990Z,103494.66
2023-02-05T06:32:49.154Z,103499.03
2023-02-05T06:35:16.932Z,103485.16
2023-02-05T06:37:47.935Z,103477.34
2023-02-05T06:40:18.186Z,103470.44
2023-02-05T06:42:46.429Z,103487.78
2023-02-05T06:45:14.191Z,103486.00
2023-02-05T06:47:42.022Z,103483.44
2023-02-05T06:50:11.572Z,103482.59
2023-02-05T06:52:39.511Z,103492.06
2023-02-05T06:55:07.905Z,103513.78
2023-02-05T06:57:35.661Z,103513.75
2023-02-05T07:00:03.442Z,103535.41
2023-02-05T07:02:31.243Z,103531.97
2023-02-05T07:04:59.000Z,103516.34
2023-02-05T07:07:28.353Z,103530.22
2023-02-05T07:09:56.209Z,103532.84
2023-02-05T07:12:24.311Z,103539.75
2023-02-05T07:14:52.092Z,103555.34
2023-02-05T07:17:20.907Z,103564.03
2023-02-05T07:19:48.883Z,103573.56
2023-02-05T07:22:16.930Z,103563.91
2023-02-05T07:24:46.438Z,103589.13
2023-02-05T07:27:14.207Z,103593.50
2023-02-05T07:29:42.054Z,103570.97
2023-02-05T07:32:10.088Z,103568.38
2023-02-05T07:34:38.131Z,103559.69
2023-02-05T07:37:05.911Z,103556.22
2023-02-05T07:39:34.286Z,103552.69
2023-02-05T07:42:03.385Z,103570.13
2023-02-05T07:44:31.301Z,103560.56
2023-02-05T07:46:59.062Z,103573.56
2023-02-05T07:49:26.923Z,103572.66
2023-02-05T07:51:54.683Z,103574.38
2023-02-05T07:54:22.491Z,103575.16
2023-02-05T07:56:50.233Z,103596.09
2023-02-05T07:59:22.067Z,103596.13
2023-02-05T08:01:49.798Z,103602.16
2023-02-05T08:04:17.798Z,103603.91
2023-02-05T08:06:45.727Z,103607.41
2023-02-05T08:09:14.300Z,103591.59
2023-02-05T08:11:42.029Z,103603.06
2023-02-05T08:14:09.982Z,103589.19
2023-02-05T08:16:39.156Z,103583.94
2023-02-05T08:19:07.880Z,103583.94
2023-02-05T08:21:35.683Z,103586.50
2023-02-05T08:24:03.424Z,103581.91
2023-02-05T08:26:31.209Z,103603.66
2023-02-05T08:28:59.775Z,103609.09
2023-02-05T08:31:35.706Z,103601.28
2023-02-05T08:34:05.993Z,103589.97
2023-02-05T08:36:33.717Z,103584.53
2023-02-05T08:39:01.546Z,103592.56
2023-02-05T08:41:29.408Z,103588.00
2023-02-05T08:43:57.187Z,103593.34
2023-02-05T08:46:31.562Z,103614.16
2023-02-05T08:49:06.768Z,103617.34
2023-02-05T08:51:35.708Z,103634.09
2023-02-05T08:54:03.711Z,103638.47
2023-02-05T08:56:31.801Z,103632.22
2023-02-05T08:58:59.533Z,103636.59
2023-02-05T09:01:27.378Z,103649.81
2023-02-05T09:03:55.152Z,103642.84
2023-02-05T09:06:24.325Z,103651.59
2023-02-05T09:08:52.089Z,103640.97
2023-02-05T09:11:22.266Z,103665.31
2023-02-05T09:13:50.045Z,103653.28
2023-02-05T09:16:17.769Z,103654.03
2023-02-05T09:18:45.543Z,103643.28
2023-02-05T09:21:14.393Z,103648.03
2023-02-05T09:23:43.649Z,103640.00
2023-02-05T09:26:12.857Z,103647.72
2023-02-05T09:28:40.935Z,103643.44
2023-02-05T09:31:10.686Z,103646.13
2023-02-05T09:33:38.566Z,103631.41
2023-02-05T09:36:08.133Z,103640.16
2023-02-05T09:38:35.959Z,103639.66
2023-02-05T09:41:10.587Z,103647.09
2023-02-05T09:43:48.435Z,103647.63
2023-02-05T09:46:30.514Z,103652.53
2023-02-05T09:49:03.641Z,103650.91
2023-02-05T09:51:35.103Z,103658.72
2023-02-05T09:56:58.967Z,103666.78
2023-02-05T09:59:28.958Z,103673.81
2023-02-05T10:01:59.698Z,103666.06
2023-02-05T10:04:28.139Z,103666.78
2023-02-05T10:07:22.704Z,103670.44
2023-02-05T10:10:29.035Z,103669.22
2023-02-05T10:13:29.157Z,103674.91
2023-02-05T10:16:10.869Z,103673.72
2023-02-05T10:18:51.230Z,103675.06
2023-02-05T10:21:31.982Z,103660.97
2023-02-05T10:24:22.334Z,103664.59
2023-02-05T10:26:52.132Z,103664.59
2023-02-05T10:29:31.970Z,103670.66
2023-02-05T10:32:17.616Z,103684.38
2023-02-05T10:34:56.565Z,103699.59
2023-02-05T10:37:35.312Z,103680.88
2023-02-05T10:40:11.676Z,103674.56
2023-02-05T10:42:43.143Z,103678.13
2023-02-05T10:46:16.583Z,103686.94
2023-02-05T10:48:47.631Z,103685.94
2023-02-05T10:51:19.193Z,103673.19
2023-02-05T10:53:55.108Z,103676.56
2023-02-05T10:56:24.024Z,103667.09
2023-02-05T10:58:55.148Z,103667.31
2023-02-05T11:01:26.254Z,103661.66
2023-02-05T11:03:57.760Z,103656.69
2023-02-05T11:06:27.329Z,103670.13
2023-02-05T11:09:13.069Z,103670.50
2023-02-05T11:11:41.493Z,103672.34
2023-02-05T11:14:21.234Z,103676.81
2023-02-05T11:16:50.397Z,103675.75
2023-02-05T11:19:24.749Z,103678.81
2023-02-05T11:21:55.805Z,103667.38
2023-02-05T11:24:26.804Z,103667.16
2023-02-05T11:27:25.956Z,103646.94
2023-02-05T11:29:53.815Z,103660.31
2023-02-05T11:32:24.768Z,103665.53
2023-02-05T11:35:10.467Z,103681.94
2023-02-05T11:37:40.489Z,103675.38
2023-02-05T11:40:20.179Z,103694.53
2023-02-05T11:42:55.141Z,103701.78
2023-02-05T11:45:23.600Z,103702.28
2023-02-05T11:47:52.783Z,103686.38
2023-02-05T11:50:26.009Z,103686.75
2023-02-05T11:52:54.080Z,103686.88
2023-02-05T11:55:29.611Z,103688.81
2023-02-05T11:58:02.110Z,103691.34
2023-02-05T12:00:30.722Z,103688.69
2023-02-05T12:03:11.089Z,103690.22
2023-02-05T12:05:43.283Z,103708.72
2023-02-05T12:08:19.140Z,103695.59
2023-02-05T12:10:57.544Z,103701.53
2023-02-05T12:13:35.175Z,103704.16
2023-02-05T12:16:12.749Z,103709.66
2023-02-05T12:18:52.670Z,103706.47
2023-02-05T12:21:26.475Z,103694.47
2023-02-05T12:24:29.411Z,103700.22
2023-02-05T12:27:02.347Z,103685.63
2023-02-05T12:29:52.544Z,103680.50
2023-02-05T12:32:34.370Z,103657.84
2023-02-05T12:35:21.687Z,103659.53
2023-02-05T12:37:57.830Z,103668.88
2023-02-05T12:40:40.443Z,103667.88
2023-02-05T12:43:22.936Z,103653.28
2023-02-05T12:45:59.533Z,103641.06
2023-02-05T12:48:42.164Z,103643.78
2023-02-05T12:51:25.845Z,103629.06
2023-02-05T12:54:07.350Z,103640.19
2023-02-05T12:56:47.490Z,103622.97
2023-02-05T12:59:19.648Z,103604.19
2023-02-05T13:01:52.293Z,103596.78
2023-02-05T13:04:31.723Z,103593.84
2023-02-05T13:07:11.762Z,103608.38
2023-02-05T13:09:48.622Z,103603.31
2023-02-05T13:12:19.032Z,103610.31
2023-02-05T13:14:57.494Z,103607.88
2023-02-05T13:17:28.748Z,103602.56
2023-02-05T13:20:00.383Z,103604.72
2023-02-05T13:22:50.497Z,103603.75
2023-02-05T13:25:42.204Z,103605.56
2023-02-05T13:28:41.121Z,103601.88
2023-02-05T13:31:21.288Z,103581.88
2023-02-05T13:33:49.967Z,103583.91
2023-02-05T13:36:58.392Z,103587.44
2023-02-05T13:39:47.547Z,103608.19
2023-02-05T13:42:39.060Z,103631.78
2023-02-05T13:45:37.407Z,103642.69
2023-02-05T13:48:26.518Z,103625.72
2023-02-05T13:51:17.747Z,103623.59
2023-02-05T13:54:00.714Z,103624.16
2023-02-05T13:56:55.179Z,103629.38
2023-02-05T13:59:30.115Z,103614.53
2023-02-05T14:02:01.735Z,103614.19
2023-02-05T14:04:34.625Z,103609.47
2023-02-05T14:07:05.499Z,103597.84
2023-02-05T14:09:38.623Z,103594.41
2023-02-05T14:12:11.996Z,103609.91
2023-02-05T14:14:42.411Z,103612.72
2023-02-05T14:17:47.704Z,103636.22
2023-02-05T14:20:39.003Z,103637.44
2023-02-05T14:23:37.944Z,103629.88
2023-02-05T14:26:14.294Z,103642.03
2023-02-05T14:28:51.416Z,103657.34
2023-02-05T14:31:57.791Z,103657.88
2023-02-05T14:34:46.109Z,103654.06
2023-02-05T14:37:36.137Z,103659.41
2023-02-05T14:40:21.937Z,103674.00
2023-02-05T14:42:59.261Z,103681.97
2023-02-05T14:45:35.794Z,103682.03
2023-02-05T14:48:03.852Z,103682.91
2023-02-05T14:50:31.639Z,103672.50
2023-02-05T14:53:01.739Z,103674.09
2023-02-05T14:55:34.738Z,103666.00
2023-02-05T14:58:06.926Z,103662.38
2023-02-05T15:00:38.418Z,103655.22
2023-02-05T15:03:27.007Z,103648.84
2023-02-05T15:06:03.379Z,103649.75
2023-02-05T15:08:46.234Z,103652.63
2023-02-05T15:11:22.563Z,103648.28
2023-02-05T15:14:33.222Z,103653.59
2023-02-05T15:17:53.040Z,103659.00
2023-02-05T15:20:32.597Z,103661.00
2023-02-05T15:23:20.895Z,103659.91
2023-02-05T15:25:56.150Z,103663.22
2023-02-05T15:28:31.158Z,103675.88
2023-02-05T15:31:18.989Z,103677.59
2023-02-05T15:33:57.264Z,103676.44
2023-02-05T15:36:33.485Z,103674.34
2023-02-05T15:39:13.862Z,103694.22
2023-02-05T15:41:45.440Z,103689.44
2023-02-05T15:44:27.342Z,103686.44
2023-02-05T15:46:59.250Z,103690.78
2023-02-05T15:49:32.646Z,103694.94
2023-02-05T15:52:02.668Z,103697.97
2023-02-05T15:54:34.757Z,103704.44
2023-02-05T15:57:04.494Z,103698.84
2023-02-05T15:59:33.732Z,103707.28
2023-02-05T16:02:05.126Z,103699.84
2023-02-05T16:04:35.081Z,103707.25
2023-02-05T16:07:19.631Z,103710.91
2023-02-05T16:09:48.714Z,103722.06
2023-02-05T16:12:17.025Z,103729.53
2023-02-05T16:14:44.929Z,103728.25
2023-02-05T16:17:18.530Z,103717.34
2023-02-05T16:19:53.784Z,103700.66
2023-02-05T16:22:36.178Z,103698.34
2023-02-05T16:25:07.289Z,103682.28
2023-02-05T16:27:40.852Z,103683.44
2023-02-05T16:30:17.703Z,103687.63
2023-02-05T16:32:45.969Z,103695.81
2023-02-05T16:35:23.206Z,103705.00
2023-02-05T16:37:52.813Z,103706.84
2023-02-05T16:40:35.241Z,103688.06
2023-02-05T16:43:20.219Z,103710.31
2023-02-05T16:46:18.146Z,103704.81
2023-02-05T16:48:51.015Z,103702.50
2023-02-05T16:51:55.723Z,103712.34
2023-02-05T16:54:30.575Z,103722.94
2023-02-05T16:57:05.930Z,103720.94
2023-02-05T16:59:36.922Z,103730.41
2023-02-05T17:02:05.580Z,103744.84
2023-02-05T17:04:37.703Z,103757.22
2023-02-05T17:07:16.174Z,103751.00
2023-02-05T17:09:45.589Z,103772.47
2023-02-05T17:12:41.897Z,103784.63
2023-02-05T17:15:34.935Z,103775.78
2023-02-05T17:18:19.282Z,103764.78
2023-02-05T17:20:47.111Z,103750.00
2023-02-05T17:23:15.877Z,103728.88
2023-02-05T17:25:52.481Z,103733.78
2023-02-05T17:28:24.835Z,103746.81
2023-02-05T17:30:54.457Z,103756.94
2023-02-05T17:33:24.055Z,103757.38
2023-02-05T17:35:53.322Z,103753.75
2023-02-05T17:38:23.517Z,103764.06
2023-02-05T17:41:13.361Z,103778.44
2023-02-05T17:43:41.340Z,103798.16
2023-02-05T17:46:13.261Z,103782.97
2023-02-05T17:48:41.208Z,103782.59
2023-02-05T17:51:17.332Z,103794.56
2023-02-05T17:53:45.055Z,103788.38
2023-02-05T17:56:15.280Z,103787.44
2023-02-05T17:58:43.087Z,103783.19
2023-02-05T18:01:11.827Z,103775.34
2023-02-05T18:03:42.861Z,103777.78
2023-02-05T18:06:13.357Z,103787.00
2023-02-05T18:08:42.199Z,103779.78
2023-02-05T18:11:10.771Z,103768.94
2023-02-05T18:13:40.014Z,103771.91
2023-02-05T18:16:08.776Z,103771.69
2023-02-05T18:18:39.068Z,103769.66
2023-02-05T18:21:07.728Z,103762.81
2023-02-05T18:23:35.723Z,103770.09
2023-02-05T18:26:06.382Z,103777.78
2023-02-05T18:28:35.612Z,103774.50
2023-02-05T18:31:07.416Z,103773.63
2023-02-05T18:33:35.738Z,103775.38
2023-02-05T18:36:05.009Z,103775.56
2023-02-05T18:38:32.969Z,103781.75
2023-02-05T18:41:06.652Z,103788.56
2023-02-05T18:43:36.338Z,103784.06
2023-02-05T18:46:09.765Z,103797.81
2023-02-05T18:48:38.271Z,103808.03
2023-02-05T18:51:06.853Z,103804.88
2023-02-05T18:53:35.513Z,103801.50
2023-02-05T18:56:04.335Z,103798.31
2023-02-05T18:58:32.145Z,103794.53
2023-02-05T19:01:02.887Z,103798.28
2023-02-05T19:03:32.078Z,103796.00
2023-02-05T19:06:04.791Z,103791.94
2023-02-05T19:08:32.706Z,103793.47
2023-02-05T19:11:00.620Z,103796.06
2023-02-05T19:13:28.444Z,103797.69
2023-02-05T19:15:57.451Z,103797.41
2023-02-05T19:18:25.225Z,103806.66
2023-02-05T19:20:56.707Z,103812.72
2023-02-05T19:23:24.552Z,103808.34
2023-02-05T19:25:52.333Z,103802.22
2023-02-05T19:28:20.084Z,103796.66
2023-02-05T19:30:47.921Z,103809.03
2023-02-05T19:33:16.022Z,103824.63
2023-02-05T19:35:43.768Z,103826.53
2023-02-05T19:38:12.873Z,103829.28
2023-02-05T19:40:40.617Z,103829.97
2023-02-05T19:43:10.646Z,103842.00
2023-02-05T19:45:38.575Z,103840.63
2023-02-05T19:48:06.859Z,103839.06
2023-02-05T19:50:35.101Z,103844.31
2023-02-05T19:53:05.473Z,103828.59
2023-02-05T19:55:35.886Z,103829.50
2023-02-05T19:58:05.742Z,103817.47
2023-02-05T20:00:33.733Z,103820.44
2023-02-05T20:03:01.678Z,103816.59
2023-02-05T20:05:29.614Z,103809.94
2023-02-05T20:07:57.361Z,103816.16
2023-02-05T20:10:25.166Z,103804.88
2023-02-05T20:12:54.720Z,103791.25
2023-02-05T20:15:25.101Z,103792.25
2023-02-05T20:17:53.071Z,103790.88
2023-02-05T20:20:33.213Z,103789.03
2023-02-05T20:23:01.696Z,103777.53
2023-02-05T20:25:29.485Z,103783.28
2023-02-05T20:27:58.696Z,103793.06
2023-02-05T20:30:44.106Z,103776.47
2023-02-05T20:33:11.946Z,103778.19
2023-02-05T20:35:40.196Z,103772.91
2023-02-05T20:38:11.472Z,103766.03
2023-02-05T20:40:39.213Z,103747.63
2023-02-05T20:43:09.206Z,103723.78
2023-02-05T20:45:36.981Z,103727.31
2023-02-05T20:48:05.125Z,103721.44
2023-02-05T20:50:35.088Z,103716.78
2023-02-05T20:53:03.044Z,103711.94
2023-02-05T20:55:30.766Z,103709.75
2023-02-05T20:58:00.850Z,103717.78
2023-02-05T21:00:30.190Z,103705.16
2023-02-05T21:02:57.949Z,103698.38
2023-02-05T21:05:25.717Z,103688.19
2023-02-05T21:07:54.532Z,103678.06
2023-02-05T21:10:25.083Z,103647.78
2023-02-05T21:12:52.813Z,103664.28
2023-02-05T21:15:23.653Z,103655.25
2023-02-05T21:17:55.689Z,103649.56
2023-02-05T21:20:24.715Z,103646.16
2023-02-05T21:22:52.452Z,103648.69
2023-02-05T21:25:20.278Z,103643.06
2023-02-05T21:27:50.226Z,103629.88
2023-02-05T21:30:18.151Z,103624.25
2023-02-05T21:32:45.998Z,103619.94
2023-02-05T21:35:15.082Z,103591.56
2023-02-05T21:37:42.842Z,103582.69
2023-02-05T21:40:11.523Z,103565.19
2023-02-05T21:42:39.265Z,103572.53
2023-02-05T21:45:07.971Z,103575.97
2023-02-05T21:47:35.840Z,103600.44
2023-02-05T21:50:03.890Z,103629.22
2023-02-05T21:52:32.982Z,103614.16
2023-02-05T21:55:00.829Z,103628.19
2023-02-05T21:57:28.573Z,103595.06
2023-02-05T21:59:56.307Z,103615.38
2023-02-05T22:02:24.106Z,103591.63
2023-02-05T22:04:52.144Z,103581.63
2023-02-05T22:07:19.949Z,103595.59
2023-02-05T22:09:49.224Z,103577.91
2023-02-05T22:12:17.894Z,103572.47
2023-02-05T22:14:45.657Z,103557.69
2023-02-05T22:17:13.588Z,103552.22
2023-02-05T22:19:41.303Z,103553.91
2023-02-05T22:22:09.049Z,103554.53
2023-02-05T22:24:36.813Z,103564.38
2023-02-05T22:27:06.124Z,103560.50
2023-02-05T22:29:33.879Z,103555.59
2023-02-05T22:32:01.881Z,103532.78
2023-02-05T22:34:29.693Z,103523.84
2023-02-05T22:36:57.406Z,103529.78
2023-02-05T22:39:25.167Z,103547.84
2023-02-05T22:41:52.909Z,103533.47
2023-02-05T22:44:22.054Z,103530.75
2023-02-05T22:46:49.802Z,103497.66
2023-02-05T22:49:17.546Z,103503.28
2023-02-05T22:51:46.080Z,103519.19
2023-02-05T22:54:16.514Z,103539.66
2023-02-05T22:56:44.400Z,103550.31
2023-02-05T22:59:12.367Z,103533.22
2023-02-05T23:01:41.465Z,103550.72
2023-02-05T23:04:10.506Z,103544.53
2023-02-05T23:06:40.019Z,103561.38
2023-02-05T23:09:09.544Z,103553.81
2023-02-05T23:11:37.677Z,103532.34
2023-02-05T23:14:06.761Z,103539.66
2023-02-05T23:16:36.642Z,103519.38
2023-02-05T23:19:08.831Z,103513.63
2023-02-05T23:21:38.814Z,103521.00
2023-02-05T23:24:07.788Z,103519.63
2023-02-05T23:26:38.855Z,103520.31
2023-02-05T23:29:07.613Z,103489.22
2023-02-05T23:31:35.748Z,103491.28
2023-02-05T23:34:05.261Z,103482.06
2023-02-05T23:36:33.107Z,103460.16
2023-02-05T23:39:01.112Z,103462.19
2023-02-05T23:41:39.550Z,103422.81
2023-02-05T23:44:11.062Z,103383.78
2023-02-05T23:46:39.340Z,103373.09
2023-02-05T23:49:09.220Z,103355.09
2023-02-05T23:51:36.993Z,103374.84
2023-02-05T23:54:05.347Z,103375.06
2023-02-05T23:56:33.503Z,103389.81
2023-02-05T23:59:01.405Z,103369.69
